sensor_id;sensor_type;location;lat;lon;timestamp;P1;durP1;ratioP1;P2;durP2;ratioP2
9328;SDS011;4703;48.748;19.142;2022-07-29T00:00:29;8.77;;;8.07;;
9328;SDS011;4703;48.748;19.142;2022-07-29T00:02:56;9.17;;;8.27;;
9328;SDS011;4703;48.748;19.142;2022-07-29T00:05:23;8.90;;;8.20;;
9328;SDS011;4703;48.748;19.142;2022-07-29T00:07:51;11.60;;;8.57;;
9328;SDS011;4703;48.748;19.142;2022-07-29T00:10:18;9.07;;;8.37;;
9328;SDS011;4703;48.748;19.142;2022-07-29T00:12:45;9.97;;;8.97;;
9328;SDS011;4703;48.748;19.142;2022-07-29T00:15:12;8.93;;;8.23;;
9328;SDS011;4703;48.748;19.142;2022-07-29T00:17:39;9.73;;;8.83;;
9328;SDS011;4703;48.748;19.142;2022-07-29T00:20:07;9.00;;;8.30;;
9328;SDS011;4703;48.748;19.142;2022-07-29T00:22:36;10.23;;;9.37;;
9328;SDS011;4703;48.748;19.142;2022-07-29T00:25:05;8.53;;;7.90;;
9328;SDS011;4703;48.748;19.142;2022-07-29T00:27:34;9.40;;;8.60;;
9328;SDS011;4703;48.748;19.142;2022-07-29T00:30:02;9.80;;;9.00;;
9328;SDS011;4703;48.748;19.142;2022-07-29T00:32:30;8.10;;;7.40;;
9328;SDS011;4703;48.748;19.142;2022-07-29T00:34:57;9.07;;;8.47;;
9328;SDS011;4703;48.748;19.142;2022-07-29T00:37:43;8.33;;;7.73;;
9328;SDS011;4703;48.748;19.142;2022-07-29T00:40:10;8.93;;;8.23;;
9328;SDS011;4703;48.748;19.142;2022-07-29T00:42:48;8.47;;;7.83;;
9328;SDS011;4703;48.748;19.142;2022-07-29T00:45:17;9.23;;;8.10;;
9328;SDS011;4703;48.748;19.142;2022-07-29T00:47:46;8.80;;;7.90;;
9328;SDS011;4703;48.748;19.142;2022-07-29T00:50:13;8.97;;;8.10;;
9328;SDS011;4703;48.748;19.142;2022-07-29T00:52:41;9.10;;;8.20;;
9328;SDS011;4703;48.748;19.142;2022-07-29T00:55:11;9.40;;;8.60;;
9328;SDS011;4703;48.748;19.142;2022-07-29T00:57:40;9.60;;;8.80;;
9328;SDS011;4703;48.748;19.142;2022-07-29T01:00:10;8.70;;;8.00;;
9328;SDS011;4703;48.748;19.142;2022-07-29T01:02:47;9.20;;;8.50;;
9328;SDS011;4703;48.748;19.142;2022-07-29T01:05:15;9.10;;;8.30;;
9328;SDS011;4703;48.748;19.142;2022-07-29T01:07:46;9.50;;;8.70;;
9328;SDS011;4703;48.748;19.142;2022-07-29T01:10:16;8.77;;;7.97;;
9328;SDS011;4703;48.748;19.142;2022-07-29T01:12:45;9.00;;;8.20;;
9328;SDS011;4703;48.748;19.142;2022-07-29T01:15:15;9.43;;;8.63;;
9328;SDS011;4703;48.748;19.142;2022-07-29T01:17:50;10.03;;;9.23;;
9328;SDS011;4703;48.748;19.142;2022-07-29T01:26:48;9.57;;;8.87;;
9328;SDS011;4703;48.748;19.142;2022-07-29T01:29:35;9.70;;;8.93;;
9328;SDS011;4703;48.748;19.142;2022-07-29T01:32:15;9.83;;;8.97;;
9328;SDS011;4703;48.748;19.142;2022-07-29T01:34:58;9.70;;;8.97;;
9328;SDS011;4703;48.748;19.142;2022-07-29T01:40:40;9.80;;;9.00;;
9328;SDS011;4703;48.748;19.142;2022-07-29T01:43:17;9.37;;;8.67;;
9328;SDS011;4703;48.748;19.142;2022-07-29T01:45:58;10.37;;;8.57;;
9328;SDS011;4703;48.748;19.142;2022-07-29T01:48:40;8.87;;;7.97;;
9328;SDS011;4703;48.748;19.142;2022-07-29T01:56:35;9.00;;;8.30;;
9328;SDS011;4703;48.748;19.142;2022-07-29T01:59:04;9.10;;;8.40;;
9328;SDS011;4703;48.748;19.142;2022-07-29T02:01:35;9.40;;;8.57;;
9328;SDS011;4703;48.748;19.142;2022-07-29T02:04:06;10.20;;;9.40;;
9328;SDS011;4703;48.748;19.142;2022-07-29T02:06:52;9.70;;;8.90;;
9328;SDS011;4703;48.748;19.142;2022-07-29T02:09:23;9.07;;;8.37;;
9328;SDS011;4703;48.748;19.142;2022-07-29T02:11:52;9.10;;;8.40;;
9328;SDS011;4703;48.748;19.142;2022-07-29T02:14:22;9.97;;;9.07;;
9328;SDS011;4703;48.748;19.142;2022-07-29T02:16:52;9.97;;;9.17;;
9328;SDS011;4703;48.748;19.142;2022-07-29T02:19:21;9.60;;;8.67;;
9328;SDS011;4703;48.748;19.142;2022-07-29T02:21:50;10.30;;;9.50;;
9328;SDS011;4703;48.748;19.142;2022-07-29T02:24:20;10.67;;;9.67;;
9328;SDS011;4703;48.748;19.142;2022-07-29T02:26:50;8.77;;;8.00;;
9328;SDS011;4703;48.748;19.142;2022-07-29T02:29:23;9.20;;;8.50;;
9328;SDS011;4703;48.748;19.142;2022-07-29T02:31:53;9.23;;;8.53;;
9328;SDS011;4703;48.748;19.142;2022-07-29T02:34:21;9.47;;;8.77;;
9328;SDS011;4703;48.748;19.142;2022-07-29T02:36:49;8.97;;;8.30;;
9328;SDS011;4703;48.748;19.142;2022-07-29T02:39:17;13.53;;;9.43;;
9328;SDS011;4703;48.748;19.142;2022-07-29T02:41:52;9.27;;;8.53;;
9328;SDS011;4703;48.748;19.142;2022-07-29T02:44:26;8.87;;;8.17;;
9328;SDS011;4703;48.748;19.142;2022-07-29T02:50:20;10.00;;;8.97;;
9328;SDS011;4703;48.748;19.142;2022-07-29T02:53:01;10.50;;;9.70;;
9328;SDS011;4703;48.748;19.142;2022-07-29T02:56:19;8.93;;;8.13;;
9328;SDS011;4703;48.748;19.142;2022-07-29T02:58:36;9.70;;;9.00;;
9328;SDS011;4703;48.748;19.142;2022-07-29T03:01:22;9.37;;;8.67;;
9328;SDS011;4703;48.748;19.142;2022-07-29T03:03:51;10.80;;;9.90;;
9328;SDS011;4703;48.748;19.142;2022-07-29T03:06:20;9.93;;;9.03;;
9328;SDS011;4703;48.748;19.142;2022-07-29T03:09:04;9.23;;;8.43;;
9328;SDS011;4703;48.748;19.142;2022-07-29T03:11:38;9.53;;;8.73;;
9328;SDS011;4703;48.748;19.142;2022-07-29T03:14:18;9.77;;;9.03;;
9328;SDS011;4703;48.748;19.142;2022-07-29T03:16:47;10.10;;;9.13;;
9328;SDS011;4703;48.748;19.142;2022-07-29T03:19:16;10.10;;;9.20;;
9328;SDS011;4703;48.748;19.142;2022-07-29T03:21:43;9.03;;;8.23;;
9328;SDS011;4703;48.748;19.142;2022-07-29T03:24:14;9.10;;;8.40;;
9328;SDS011;4703;48.748;19.142;2022-07-29T03:26:58;9.50;;;8.80;;
9328;SDS011;4703;48.748;19.142;2022-07-29T03:29:26;11.07;;;10.07;;
9328;SDS011;4703;48.748;19.142;2022-07-29T03:32:00;9.97;;;9.23;;
9328;SDS011;4703;48.748;19.142;2022-07-29T03:34:34;9.07;;;8.37;;
9328;SDS011;4703;48.748;19.142;2022-07-29T03:37:03;10.27;;;9.37;;
9328;SDS011;4703;48.748;19.142;2022-07-29T03:39:33;10.10;;;9.10;;
9328;SDS011;4703;48.748;19.142;2022-07-29T03:42:06;11.80;;;10.70;;
9328;SDS011;4703;48.748;19.142;2022-07-29T03:44:35;11.80;;;10.80;;
9328;SDS011;4703;48.748;19.142;2022-07-29T03:47:03;13.87;;;12.73;;
9328;SDS011;4703;48.748;19.142;2022-07-29T03:49:32;12.40;;;11.10;;
9328;SDS011;4703;48.748;19.142;2022-07-29T03:52:03;12.27;;;11.33;;
9328;SDS011;4703;48.748;19.142;2022-07-29T03:54:31;10.97;;;9.97;;
9328;SDS011;4703;48.748;19.142;2022-07-29T03:56:59;10.47;;;9.27;;
9328;SDS011;4703;48.748;19.142;2022-07-29T03:59:28;11.10;;;10.10;;
9328;SDS011;4703;48.748;19.142;2022-07-29T04:01:59;9.73;;;8.93;;
9328;SDS011;4703;48.748;19.142;2022-07-29T04:04:31;9.47;;;8.77;;
9328;SDS011;4703;48.748;19.142;2022-07-29T04:07:00;9.40;;;8.73;;
9328;SDS011;4703;48.748;19.142;2022-07-29T04:09:27;9.27;;;8.50;;
9328;SDS011;4703;48.748;19.142;2022-07-29T04:11:54;9.33;;;8.63;;
9328;SDS011;4703;48.748;19.142;2022-07-29T04:14:29;9.57;;;8.77;;
9328;SDS011;4703;48.748;19.142;2022-07-29T04:17:01;9.67;;;8.87;;
9328;SDS011;4703;48.748;19.142;2022-07-29T04:19:29;10.07;;;9.17;;
9328;SDS011;4703;48.748;19.142;2022-07-29T04:21:57;10.20;;;9.40;;
9328;SDS011;4703;48.748;19.142;2022-07-29T04:24:25;10.53;;;9.63;;
9328;SDS011;4703;48.748;19.142;2022-07-29T04:26:53;9.67;;;8.87;;
9328;SDS011;4703;48.748;19.142;2022-07-29T04:29:21;9.90;;;9.10;;
9328;SDS011;4703;48.748;19.142;2022-07-29T04:31:48;9.90;;;9.10;;
9328;SDS011;4703;48.748;19.142;2022-07-29T04:34:15;9.60;;;8.90;;
9328;SDS011;4703;48.748;19.142;2022-07-29T04:36:43;10.00;;;9.20;;
9328;SDS011;4703;48.748;19.142;2022-07-29T04:39:09;10.87;;;9.97;;
9328;SDS011;4703;48.748;19.142;2022-07-29T04:41:36;10.07;;;9.17;;
9328;SDS011;4703;48.748;19.142;2022-07-29T04:44:03;10.30;;;9.50;;
9328;SDS011;4703;48.748;19.142;2022-07-29T04:46:32;10.40;;;9.70;;
9328;SDS011;4703;48.748;19.142;2022-07-29T04:49:01;10.57;;;9.67;;
9328;SDS011;4703;48.748;19.142;2022-07-29T04:51:29;11.10;;;10.20;;
9328;SDS011;4703;48.748;19.142;2022-07-29T04:53:57;9.53;;;8.73;;
9328;SDS011;4703;48.748;19.142;2022-07-29T04:56:24;10.77;;;9.13;;
9328;SDS011;4703;48.748;19.142;2022-07-29T04:58:51;9.20;;;8.50;;
9328;SDS011;4703;48.748;19.142;2022-07-29T05:01:18;10.10;;;9.30;;
9328;SDS011;4703;48.748;19.142;2022-07-29T05:03:46;9.60;;;8.83;;
9328;SDS011;4703;48.748;19.142;2022-07-29T05:06:13;9.83;;;9.03;;
9328;SDS011;4703;48.748;19.142;2022-07-29T05:08:40;9.60;;;8.80;;
9328;SDS011;4703;48.748;19.142;2022-07-29T05:11:07;9.67;;;8.93;;
9328;SDS011;4703;48.748;19.142;2022-07-29T05:13:38;9.60;;;8.90;;
9328;SDS011;4703;48.748;19.142;2022-07-29T05:16:11;11.00;;;9.90;;
9328;SDS011;4703;48.748;19.142;2022-07-29T05:18:40;10.43;;;9.53;;
9328;SDS011;4703;48.748;19.142;2022-07-29T05:21:08;9.70;;;8.90;;
9328;SDS011;4703;48.748;19.142;2022-07-29T05:23:35;9.60;;;8.80;;
9328;SDS011;4703;48.748;19.142;2022-07-29T05:26:02;9.90;;;9.03;;
9328;SDS011;4703;48.748;19.142;2022-07-29T05:28:32;11.20;;;10.20;;
9328;SDS011;4703;48.748;19.142;2022-07-29T05:31:01;11.57;;;10.47;;
9328;SDS011;4703;48.748;19.142;2022-07-29T05:33:28;11.03;;;10.20;;
9328;SDS011;4703;48.748;19.142;2022-07-29T05:36:02;10.53;;;9.63;;
9328;SDS011;4703;48.748;19.142;2022-07-29T05:38:33;10.60;;;9.80;;
9328;SDS011;4703;48.748;19.142;2022-07-29T05:41:02;10.00;;;9.20;;
9328;SDS011;4703;48.748;19.142;2022-07-29T05:43:30;9.90;;;9.10;;
9328;SDS011;4703;48.748;19.142;2022-07-29T05:45:57;10.67;;;9.87;;
9328;SDS011;4703;48.748;19.142;2022-07-29T05:48:25;10.97;;;10.07;;
9328;SDS011;4703;48.748;19.142;2022-07-29T05:50:52;11.70;;;10.53;;
9328;SDS011;4703;48.748;19.142;2022-07-29T05:53:19;9.90;;;9.10;;
9328;SDS011;4703;48.748;19.142;2022-07-29T05:55:47;11.07;;;10.07;;
9328;SDS011;4703;48.748;19.142;2022-07-29T05:58:15;10.60;;;9.80;;
9328;SDS011;4703;48.748;19.142;2022-07-29T06:00:42;9.87;;;9.17;;
9328;SDS011;4703;48.748;19.142;2022-07-29T06:03:09;10.57;;;9.77;;
9328;SDS011;4703;48.748;19.142;2022-07-29T06:05:36;10.50;;;9.70;;
9328;SDS011;4703;48.748;19.142;2022-07-29T06:08:03;10.23;;;9.43;;
9328;SDS011;4703;48.748;19.142;2022-07-29T06:10:34;11.60;;;9.50;;
9328;SDS011;4703;48.748;19.142;2022-07-29T06:13:02;10.03;;;9.23;;
9328;SDS011;4703;48.748;19.142;2022-07-29T06:15:29;10.90;;;10.00;;
9328;SDS011;4703;48.748;19.142;2022-07-29T06:17:56;9.50;;;8.80;;
9328;SDS011;4703;48.748;19.142;2022-07-29T06:20:29;30.50;;;27.43;;
9328;SDS011;4703;48.748;19.142;2022-07-29T06:22:58;17.30;;;15.70;;
9328;SDS011;4703;48.748;19.142;2022-07-29T06:25:25;21.77;;;19.57;;
9328;SDS011;4703;48.748;19.142;2022-07-29T06:27:55;14.90;;;13.50;;
9328;SDS011;4703;48.748;19.142;2022-07-29T06:30:23;11.20;;;10.10;;
9328;SDS011;4703;48.748;19.142;2022-07-29T06:32:50;10.43;;;9.63;;
9328;SDS011;4703;48.748;19.142;2022-07-29T06:35:17;11.20;;;10.00;;
9328;SDS011;4703;48.748;19.142;2022-07-29T06:38:04;10.43;;;9.63;;
9328;SDS011;4703;48.748;19.142;2022-07-29T06:40:51;13.57;;;12.47;;
9328;SDS011;4703;48.748;19.142;2022-07-29T06:43:33;9.40;;;8.60;;
9328;SDS011;4703;48.748;19.142;2022-07-29T06:46:20;10.40;;;9.40;;
9328;SDS011;4703;48.748;19.142;2022-07-29T06:48:48;8.97;;;8.17;;
9328;SDS011;4703;48.748;19.142;2022-07-29T06:51:15;10.50;;;9.70;;
9328;SDS011;4703;48.748;19.142;2022-07-29T06:53:49;10.70;;;9.70;;
9328;SDS011;4703;48.748;19.142;2022-07-29T06:56:38;10.70;;;9.70;;
9328;SDS011;4703;48.748;19.142;2022-07-29T06:59:08;10.83;;;9.90;;
9328;SDS011;4703;48.748;19.142;2022-07-29T07:01:40;10.47;;;9.67;;
9328;SDS011;4703;48.748;19.142;2022-07-29T07:04:09;9.73;;;8.93;;
9328;SDS011;4703;48.748;19.142;2022-07-29T07:06:37;10.03;;;9.23;;
9328;SDS011;4703;48.748;19.142;2022-07-29T07:09:04;10.60;;;9.77;;
9328;SDS011;4703;48.748;19.142;2022-07-29T07:11:32;8.90;;;8.23;;
9328;SDS011;4703;48.748;19.142;2022-07-29T07:13:59;8.57;;;7.87;;
9328;SDS011;4703;48.748;19.142;2022-07-29T07:16:29;9.17;;;8.47;;
9328;SDS011;4703;48.748;19.142;2022-07-29T07:18:57;10.00;;;9.10;;
9328;SDS011;4703;48.748;19.142;2022-07-29T07:21:24;9.97;;;8.20;;
9328;SDS011;4703;48.748;19.142;2022-07-29T07:23:55;9.90;;;9.10;;
9328;SDS011;4703;48.748;19.142;2022-07-29T07:26:22;41.10;;;35.30;;
9328;SDS011;4703;48.748;19.142;2022-07-29T07:28:49;43.70;;;38.33;;
9328;SDS011;4703;48.748;19.142;2022-07-29T07:31:16;26.57;;;22.00;;
9328;SDS011;4703;48.748;19.142;2022-07-29T07:33:43;15.23;;;13.73;;
9328;SDS011;4703;48.748;19.142;2022-07-29T07:36:10;9.57;;;8.77;;
9328;SDS011;4703;48.748;19.142;2022-07-29T07:38:38;10.60;;;8.83;;
9328;SDS011;4703;48.748;19.142;2022-07-29T07:41:05;8.83;;;8.10;;
9328;SDS011;4703;48.748;19.142;2022-07-29T07:43:32;8.23;;;7.70;;
9328;SDS011;4703;48.748;19.142;2022-07-29T07:45:59;8.50;;;7.90;;
9328;SDS011;4703;48.748;19.142;2022-07-29T07:48:26;8.73;;;8.10;;
9328;SDS011;4703;48.748;19.142;2022-07-29T07:50:53;7.97;;;7.33;;
9328;SDS011;4703;48.748;19.142;2022-07-29T07:53:20;9.23;;;8.47;;
9328;SDS011;4703;48.748;19.142;2022-07-29T07:55:48;8.67;;;8.07;;
9328;SDS011;4703;48.748;19.142;2022-07-29T07:58:34;8.33;;;7.57;;
9328;SDS011;4703;48.748;19.142;2022-07-29T08:01:02;7.83;;;7.20;;
9328;SDS011;4703;48.748;19.142;2022-07-29T08:03:29;8.47;;;7.77;;
9328;SDS011;4703;48.748;19.142;2022-07-29T08:05:56;7.73;;;7.00;;
9328;SDS011;4703;48.748;19.142;2022-07-29T08:08:23;8.50;;;7.80;;
9328;SDS011;4703;48.748;19.142;2022-07-29T08:10:51;7.40;;;6.90;;
9328;SDS011;4703;48.748;19.142;2022-07-29T08:13:22;8.90;;;7.97;;
9328;SDS011;4703;48.748;19.142;2022-07-29T08:15:53;7.90;;;7.30;;
9328;SDS011;4703;48.748;19.142;2022-07-29T08:18:24;7.67;;;7.17;;
9328;SDS011;4703;48.748;19.142;2022-07-29T08:20:53;7.80;;;7.10;;
9328;SDS011;4703;48.748;19.142;2022-07-29T08:23:20;7.93;;;7.33;;
9328;SDS011;4703;48.748;19.142;2022-07-29T08:25:50;7.90;;;7.23;;
9328;SDS011;4703;48.748;19.142;2022-07-29T08:28:20;10.00;;;7.23;;
9328;SDS011;4703;48.748;19.142;2022-07-29T08:30:51;9.00;;;8.20;;
9328;SDS011;4703;48.748;19.142;2022-07-29T08:33:19;9.10;;;8.33;;
9328;SDS011;4703;48.748;19.142;2022-07-29T08:35:47;7.90;;;7.30;;
9328;SDS011;4703;48.748;19.142;2022-07-29T08:38:16;7.90;;;7.30;;
9328;SDS011;4703;48.748;19.142;2022-07-29T08:40:43;7.80;;;7.20;;
9328;SDS011;4703;48.748;19.142;2022-07-29T08:43:10;7.80;;;7.10;;
9328;SDS011;4703;48.748;19.142;2022-07-29T08:45:44;11.93;;;7.50;;
9328;SDS011;4703;48.748;19.142;2022-07-29T08:48:18;8.43;;;7.80;;
9328;SDS011;4703;48.748;19.142;2022-07-29T08:50:48;8.67;;;7.70;;
9328;SDS011;4703;48.748;19.142;2022-07-29T08:53:22;8.23;;;7.70;;
9328;SDS011;4703;48.748;19.142;2022-07-29T08:55:53;9.17;;;8.50;;
9328;SDS011;4703;48.748;19.142;2022-07-29T08:58:21;7.30;;;6.80;;
9328;SDS011;4703;48.748;19.142;2022-07-29T09:00:52;9.10;;;8.40;;
9328;SDS011;4703;48.748;19.142;2022-07-29T09:03:24;8.80;;;8.00;;
9328;SDS011;4703;48.748;19.142;2022-07-29T09:05:58;8.20;;;7.60;;
9328;SDS011;4703;48.748;19.142;2022-07-29T09:08:25;8.30;;;7.60;;
9328;SDS011;4703;48.748;19.142;2022-07-29T09:10:54;8.50;;;7.90;;
9328;SDS011;4703;48.748;19.142;2022-07-29T09:13:25;8.30;;;7.60;;
9328;SDS011;4703;48.748;19.142;2022-07-29T09:15:52;9.20;;;8.17;;
9328;SDS011;4703;48.748;19.142;2022-07-29T09:18:37;16.97;;;8.03;;
9328;SDS011;4703;48.748;19.142;2022-07-29T09:21:12;7.67;;;7.00;;
9328;SDS011;4703;48.748;19.142;2022-07-29T09:24:07;14.07;;;7.50;;
9328;SDS011;4703;48.748;19.142;2022-07-29T09:26:39;7.67;;;7.07;;
9328;SDS011;4703;48.748;19.142;2022-07-29T09:29:10;8.43;;;7.83;;
9328;SDS011;4703;48.748;19.142;2022-07-29T09:31:40;21.80;;;19.63;;
9328;SDS011;4703;48.748;19.142;2022-07-29T09:34:10;10.30;;;9.50;;
9328;SDS011;4703;48.748;19.142;2022-07-29T09:36:42;9.60;;;8.63;;
9328;SDS011;4703;48.748;19.142;2022-07-29T09:39:12;9.27;;;8.47;;
9328;SDS011;4703;48.748;19.142;2022-07-29T09:41:51;9.63;;;8.03;;
9328;SDS011;4703;48.748;19.142;2022-07-29T09:44:21;8.63;;;7.97;;
9328;SDS011;4703;48.748;19.142;2022-07-29T09:49:25;8.63;;;8.03;;
9328;SDS011;4703;48.748;19.142;2022-07-29T09:52:27;7.70;;;7.20;;
9328;SDS011;4703;48.748;19.142;2022-07-29T09:54:47;8.60;;;7.80;;
9328;SDS011;4703;48.748;19.142;2022-07-29T09:57:22;7.77;;;7.17;;
9328;SDS011;4703;48.748;19.142;2022-07-29T10:00:00;7.90;;;7.40;;
9328;SDS011;4703;48.748;19.142;2022-07-29T10:02:42;8.57;;;7.77;;
9328;SDS011;4703;48.748;19.142;2022-07-29T10:05:21;7.27;;;6.67;;
9328;SDS011;4703;48.748;19.142;2022-07-29T10:07:52;8.70;;;7.70;;
9328;SDS011;4703;48.748;19.142;2022-07-29T10:10:26;8.13;;;7.53;;
9328;SDS011;4703;48.748;19.142;2022-07-29T10:12:57;8.40;;;7.80;;
9328;SDS011;4703;48.748;19.142;2022-07-29T10:15:38;7.77;;;7.23;;
9328;SDS011;4703;48.748;19.142;2022-07-29T10:18:13;8.13;;;7.53;;
9328;SDS011;4703;48.748;19.142;2022-07-29T10:20:44;9.07;;;8.47;;
9328;SDS011;4703;48.748;19.142;2022-07-29T10:23:11;9.20;;;8.40;;
9328;SDS011;4703;48.748;19.142;2022-07-29T10:25:38;8.23;;;7.63;;
9328;SDS011;4703;48.748;19.142;2022-07-29T10:28:11;8.53;;;7.73;;
9328;SDS011;4703;48.748;19.142;2022-07-29T10:30:42;7.60;;;7.10;;
9328;SDS011;4703;48.748;19.142;2022-07-29T10:36:29;8.63;;;8.00;;
9328;SDS011;4703;48.748;19.142;2022-07-29T10:42:22;9.40;;;7.07;;
9328;SDS011;4703;48.748;19.142;2022-07-29T10:44:59;7.77;;;7.27;;
9328;SDS011;4703;48.748;19.142;2022-07-29T10:47:29;8.10;;;7.30;;
9328;SDS011;4703;48.748;19.142;2022-07-29T10:55:33;7.80;;;7.10;;
9328;SDS011;4703;48.748;19.142;2022-07-29T10:58:12;7.60;;;7.10;;
9328;SDS011;4703;48.748;19.142;2022-07-29T11:00:45;7.07;;;6.57;;
9328;SDS011;4703;48.748;19.142;2022-07-29T11:04:04;7.70;;;7.20;;
9328;SDS011;4703;48.748;19.142;2022-07-29T11:09:31;7.50;;;6.90;;
9328;SDS011;4703;48.748;19.142;2022-07-29T11:12:45;7.83;;;7.03;;
9328;SDS011;4703;48.748;19.142;2022-07-29T11:15:14;6.83;;;6.33;;
9328;SDS011;4703;48.748;19.142;2022-07-29T11:26:17;7.77;;;7.17;;
9328;SDS011;4703;48.748;19.142;2022-07-29T11:31:32;7.40;;;6.83;;
9328;SDS011;4703;48.748;19.142;2022-07-29T11:34:16;19.00;;;17.20;;
9328;SDS011;4703;48.748;19.142;2022-07-29T11:37:14;27.20;;;24.37;;
9328;SDS011;4703;48.748;19.142;2022-07-29T11:47:56;7.30;;;6.80;;
9328;SDS011;4703;48.748;19.142;2022-07-29T11:50:45;7.87;;;7.37;;
9328;SDS011;4703;48.748;19.142;2022-07-29T11:53:14;8.03;;;7.53;;
9328;SDS011;4703;48.748;19.142;2022-07-29T11:55:41;6.97;;;6.53;;
9328;SDS011;4703;48.748;19.142;2022-07-29T11:58:21;7.73;;;7.10;;
9328;SDS011;4703;48.748;19.142;2022-07-29T12:00:51;7.70;;;7.10;;
9328;SDS011;4703;48.748;19.142;2022-07-29T12:03:28;10.00;;;7.80;;
9328;SDS011;4703;48.748;19.142;2022-07-29T12:06:01;8.60;;;6.80;;
9328;SDS011;4703;48.748;19.142;2022-07-29T12:08:38;9.73;;;6.00;;
9328;SDS011;4703;48.748;19.142;2022-07-29T12:11:15;6.43;;;5.83;;
9328;SDS011;4703;48.748;19.142;2022-07-29T12:13:49;6.90;;;6.30;;
9328;SDS011;4703;48.748;19.142;2022-07-29T12:16:18;5.20;;;4.90;;
9328;SDS011;4703;48.748;19.142;2022-07-29T12:18:58;6.73;;;5.20;;
9328;SDS011;4703;48.748;19.142;2022-07-29T12:21:28;6.57;;;5.10;;
9328;SDS011;4703;48.748;19.142;2022-07-29T12:24:28;5.53;;;5.13;;
9328;SDS011;4703;48.748;19.142;2022-07-29T12:27:10;5.97;;;5.50;;
9328;SDS011;4703;48.748;19.142;2022-07-29T12:29:39;6.07;;;5.57;;
9328;SDS011;4703;48.748;19.142;2022-07-29T12:32:13;5.30;;;5.00;;
9328;SDS011;4703;48.748;19.142;2022-07-29T12:34:45;5.50;;;5.10;;
9328;SDS011;4703;48.748;19.142;2022-07-29T12:37:12;6.13;;;5.63;;
9328;SDS011;4703;48.748;19.142;2022-07-29T12:39:39;6.37;;;5.80;;
9328;SDS011;4703;48.748;19.142;2022-07-29T12:42:10;6.40;;;5.90;;
9328;SDS011;4703;48.748;19.142;2022-07-29T12:44:46;6.97;;;6.30;;
9328;SDS011;4703;48.748;19.142;2022-07-29T12:47:15;6.53;;;6.03;;
9328;SDS011;4703;48.748;19.142;2022-07-29T12:49:44;6.17;;;5.70;;
9328;SDS011;4703;48.748;19.142;2022-07-29T12:54:59;7.03;;;5.73;;
9328;SDS011;4703;48.748;19.142;2022-07-29T12:57:27;9.60;;;6.27;;
9328;SDS011;4703;48.748;19.142;2022-07-29T13:00:13;7.07;;;5.77;;
9328;SDS011;4703;48.748;19.142;2022-07-29T13:02:41;6.70;;;6.20;;
9328;SDS011;4703;48.748;19.142;2022-07-29T13:05:10;6.57;;;5.97;;
9328;SDS011;4703;48.748;19.142;2022-07-29T13:07:39;6.60;;;6.10;;
9328;SDS011;4703;48.748;19.142;2022-07-29T13:10:22;6.87;;;6.33;;
9328;SDS011;4703;48.748;19.142;2022-07-29T13:13:10;6.50;;;6.00;;
9328;SDS011;4703;48.748;19.142;2022-07-29T13:15:42;6.23;;;5.83;;
9328;SDS011;4703;48.748;19.142;2022-07-29T13:21:10;6.27;;;5.77;;
9328;SDS011;4703;48.748;19.142;2022-07-29T13:23:39;6.37;;;5.80;;
9328;SDS011;4703;48.748;19.142;2022-07-29T13:26:07;6.70;;;6.13;;
9328;SDS011;4703;48.748;19.142;2022-07-29T13:28:35;13.33;;;12.23;;
9328;SDS011;4703;48.748;19.142;2022-07-29T13:31:02;25.27;;;22.67;;
9328;SDS011;4703;48.748;19.142;2022-07-29T13:33:29;11.70;;;10.57;;
9328;SDS011;4703;48.748;19.142;2022-07-29T13:35:56;6.70;;;6.10;;
9328;SDS011;4703;48.748;19.142;2022-07-29T13:38:23;6.10;;;5.60;;
9328;SDS011;4703;48.748;19.142;2022-07-29T13:40:56;5.80;;;5.40;;
9328;SDS011;4703;48.748;19.142;2022-07-29T13:43:23;5.07;;;4.67;;
9328;SDS011;4703;48.748;19.142;2022-07-29T13:45:50;4.07;;;3.87;;
9328;SDS011;4703;48.748;19.142;2022-07-29T13:48:18;5.03;;;4.73;;
9328;SDS011;4703;48.748;19.142;2022-07-29T13:50:45;4.40;;;4.10;;
9328;SDS011;4703;48.748;19.142;2022-07-29T13:53:12;4.17;;;3.90;;
9328;SDS011;4703;48.748;19.142;2022-07-29T13:55:43;4.47;;;4.07;;
9328;SDS011;4703;48.748;19.142;2022-07-29T13:58:10;3.97;;;3.67;;
9328;SDS011;4703;48.748;19.142;2022-07-29T14:00:37;3.40;;;3.20;;
9328;SDS011;4703;48.748;19.142;2022-07-29T14:03:04;4.00;;;3.70;;
9328;SDS011;4703;48.748;19.142;2022-07-29T14:05:32;3.70;;;3.50;;
9328;SDS011;4703;48.748;19.142;2022-07-29T14:07:59;4.10;;;3.70;;
9328;SDS011;4703;48.748;19.142;2022-07-29T14:10:26;4.10;;;3.80;;
9328;SDS011;4703;48.748;19.142;2022-07-29T14:12:53;3.57;;;3.37;;
9328;SDS011;4703;48.748;19.142;2022-07-29T14:15:20;4.07;;;3.80;;
9328;SDS011;4703;48.748;19.142;2022-07-29T14:17:47;3.80;;;3.60;;
9328;SDS011;4703;48.748;19.142;2022-07-29T14:20:14;4.10;;;3.80;;
9328;SDS011;4703;48.748;19.142;2022-07-29T14:22:42;4.17;;;3.83;;
9328;SDS011;4703;48.748;19.142;2022-07-29T14:25:10;3.97;;;3.67;;
9328;SDS011;4703;48.748;19.142;2022-07-29T14:27:41;4.27;;;3.97;;
9328;SDS011;4703;48.748;19.142;2022-07-29T14:30:09;4.40;;;4.20;;
9328;SDS011;4703;48.748;19.142;2022-07-29T14:32:37;3.70;;;3.40;;
9328;SDS011;4703;48.748;19.142;2022-07-29T14:35:04;4.47;;;4.27;;
9328;SDS011;4703;48.748;19.142;2022-07-29T14:37:33;4.60;;;4.30;;
9328;SDS011;4703;48.748;19.142;2022-07-29T14:40:05;4.10;;;3.80;;
9328;SDS011;4703;48.748;19.142;2022-07-29T14:42:34;4.33;;;4.03;;
9328;SDS011;4703;48.748;19.142;2022-07-29T14:45:02;4.40;;;4.10;;
9328;SDS011;4703;48.748;19.142;2022-07-29T14:47:33;4.03;;;3.80;;
9328;SDS011;4703;48.748;19.142;2022-07-29T14:50:00;4.23;;;3.93;;
9328;SDS011;4703;48.748;19.142;2022-07-29T14:52:28;4.17;;;3.87;;
9328;SDS011;4703;48.748;19.142;2022-07-29T14:54:55;5.80;;;5.30;;
9328;SDS011;4703;48.748;19.142;2022-07-29T14:57:22;5.93;;;5.43;;
9328;SDS011;4703;48.748;19.142;2022-07-29T14:59:49;16.77;;;15.37;;
9328;SDS011;4703;48.748;19.142;2022-07-29T15:02:17;6.10;;;5.70;;
9328;SDS011;4703;48.748;19.142;2022-07-29T15:04:44;4.83;;;4.53;;
9328;SDS011;4703;48.748;19.142;2022-07-29T15:07:12;4.20;;;4.00;;
9328;SDS011;4703;48.748;19.142;2022-07-29T15:09:40;3.93;;;3.70;;
9328;SDS011;4703;48.748;19.142;2022-07-29T15:12:15;5.60;;;5.10;;
9328;SDS011;4703;48.748;19.142;2022-07-29T15:14:42;6.13;;;4.30;;
9328;SDS011;4703;48.748;19.142;2022-07-29T15:17:09;3.77;;;3.57;;
9328;SDS011;4703;48.748;19.142;2022-07-29T15:19:36;4.60;;;4.20;;
9328;SDS011;4703;48.748;19.142;2022-07-29T15:22:10;4.33;;;4.03;;
9328;SDS011;4703;48.748;19.142;2022-07-29T15:24:37;4.90;;;4.50;;
9328;SDS011;4703;48.748;19.142;2022-07-29T15:27:04;4.50;;;4.20;;
9328;SDS011;4703;48.748;19.142;2022-07-29T15:29:31;5.97;;;5.47;;
9328;SDS011;4703;48.748;19.142;2022-07-29T15:31:58;7.77;;;7.23;;
9328;SDS011;4703;48.748;19.142;2022-07-29T15:34:26;6.67;;;6.17;;
9328;SDS011;4703;48.748;19.142;2022-07-29T15:36:53;6.90;;;6.30;;
9328;SDS011;4703;48.748;19.142;2022-07-29T15:39:20;6.00;;;5.50;;
9328;SDS011;4703;48.748;19.142;2022-07-29T15:41:48;6.47;;;6.07;;
9328;SDS011;4703;48.748;19.142;2022-07-29T15:44:16;5.70;;;5.30;;
9328;SDS011;4703;48.748;19.142;2022-07-29T15:46:44;6.97;;;6.47;;
9328;SDS011;4703;48.748;19.142;2022-07-29T15:49:29;5.77;;;5.37;;
9328;SDS011;4703;48.748;19.142;2022-07-29T15:52:14;6.80;;;6.30;;
9328;SDS011;4703;48.748;19.142;2022-07-29T15:54:51;6.03;;;5.63;;
9328;SDS011;4703;48.748;19.142;2022-07-29T15:57:21;6.73;;;6.30;;
9328;SDS011;4703;48.748;19.142;2022-07-29T15:59:49;5.97;;;5.57;;
9328;SDS011;4703;48.748;19.142;2022-07-29T16:02:17;5.97;;;5.47;;
9328;SDS011;4703;48.748;19.142;2022-07-29T16:04:44;6.80;;;5.90;;
9328;SDS011;4703;48.748;19.142;2022-07-29T16:07:11;8.83;;;8.07;;
9328;SDS011;4703;48.748;19.142;2022-07-29T16:09:39;19.07;;;17.23;;
9328;SDS011;4703;48.748;19.142;2022-07-29T16:12:07;12.50;;;11.30;;
9328;SDS011;4703;48.748;19.142;2022-07-29T16:14:40;7.57;;;6.97;;
9328;SDS011;4703;48.748;19.142;2022-07-29T16:17:08;6.60;;;6.10;;
9328;SDS011;4703;48.748;19.142;2022-07-29T16:19:40;6.70;;;6.10;;